Owenton, Kentucky
Current Conditions -  °F | °C
As of 6:53 AM on Monday 24 Nov 2014 (Local Time) from KFFT Reporting Station
Broken Clouds Broken Clouds  
Wind Chill: 60°   Ceiling: 6500
Heat Index: 60°   Visibility: 10mi
Dew Point: 53°   Wind: 18mph
Humidity: 78%   Direction: 190°S
Pressure: 29.37"   Gusts: 30mph
Location:  38.54°N, 84.84°W
Report Text: KFFT 241153Z AUTO 19016G26KT 10SM FEW029 SCT036 BKN065 16/12 A2937 RMK AO2 PK WND 20029/1130 SLP942 60002 70077 T01560117 10161 20150 55007
Loading
Personal Weather Stations






























Interactive Weather Map New forecast layout! Learn more

10-Day Weather Forecast

Advertisements
Track Severe Weather on mobile